METAR (acronimo di METeorological Air Report) è un messaggio meteo emesso nella maggior parte dei casi in ambito aeroportuale

LEMD - Madrid-Barajas, Spagna
Ultimo Aggiornamento: Giovedì 03 Dicembre 2020 17:00 CET
Sereno
Sereno
 Wind from Sud-Sud-Ovest
Vento: Sud-Sud-Ovest 19 km/h, Raffica: 39 km/h
Temperatura: 9°C
Wind Chill: 6°C
Punto di Rugiada: -1°C
Umidità: 50%
Barometro: 1007 hPa
Condizioni: Sereno
Visibilità: superiore a 10 km
2020/12/03 16:00 LEMD 031600Z 21010G21KT 070V240 CAVOK 09/M01 Q1007 NOSIG
LPPT - Lisbona, Portogallo
Ultimo Aggiornamento: Giovedì 03 Dicembre 2020 17:00 CET
Qualche Nuvola
Qualche Nuvola
 Wind from Nord-Nord-Ovest
Vento: Nord-Nord-Ovest 19 km/h
Temperatura: 14°C
Punto di Rugiada: 8°C
Umidità: 67%
Barometro: 1013 hPa
Nuvole: Qualche Nuvola
Visibilità: 10 km
Nuvole nel Dettaglio: Qualche Nuvola 792 m
2020/12/03 16:00 LPPT 031600Z 34010KT 9999 FEW026 14/08 Q1013
LFPG - Parigi Charles de Gaulle, Francia
Ultimo Aggiornamento: Giovedì 03 Dicembre 2020 17:00 CET
Pioggia Leggera, Prevalentemente Nuvoloso
Pioggia Leggera, Prevalentemente Nuvoloso
 Wind from Sud
Vento: Sud 28 km/h
Temperatura: 7°C
Wind Chill: 3°C
Punto di Rugiada: 5°C
Umidità: 87%
Barometro: 989 hPa
Condizioni: Pioggia Leggera
Nuvole: Prevalentemente Nuvoloso
Visibilità: 10 km
Nuvole nel Dettaglio: Prevalentemente Nuvoloso 213 m
2020/12/03 16:00 LFPG 031600Z 18015KT 9999 -RA BKN007 07/05 Q0989 NOSIG
 
LSZB - Berna, Svizzera
Ultimo Aggiornamento: Giovedì 03 Dicembre 2020 16:50 CET
Qualche Nuvola
Qualche Nuvola
 Wind from varies
Vento: variabile 2 km/h
Temperatura: 2°C
Punto di Rugiada: -3°C
Umidità: 70%
Barometro: 1001 hPa
Nuvole: Qualche Nuvola
Visibilità: 10 km
Nuvole nel Dettaglio: Qualche Nuvola 4267 m
2020/12/03 15:50 LSZB 031550Z VRB01KT 9999 FEW140 02/M03 Q1001 NOSIG
LOWW - Vienna-Schwechat, Austria
Ultimo Aggiornamento: Giovedì 03 Dicembre 2020 16:50 CET
Bruma, Prevalentemente Nuvoloso
Bruma, Prevalentemente Nuvoloso
 Wind from Sud-Est
Vento: Sud-Est 13 km/h
Temperatura: -1°C
Wind Chill: -6°C
Punto di Rugiada: -1°C
Umidità: 100%
Barometro: 1009 hPa
Condizioni: Bruma
Nuvole: Prevalentemente Nuvoloso
Visibilità: 3 km
Nuvole nel Dettaglio: Qualche Nuvola 30 m
Prevalentemente Nuvoloso 61 m
2020/12/03 15:50 LOWW 031550Z 14007KT 3200 BR FEW001 BKN002 M01/M01 Q1009 R11///99// R16/29//95 TEMPO 2000
LKPR - Praga-Ruzyne, Repubblica Ceca
Ultimo Aggiornamento: Giovedì 03 Dicembre 2020 17:00 CET
Nuvoloso
Nuvoloso
 Wind from Sud
Vento: Sud 7 km/h
Temperatura: -1°C
Wind Chill: -4°C
Punto di Rugiada: -4°C
Umidità: 80%
Barometro: 1005 hPa
Nuvole: Nuvoloso
Visibilità: 10 km
Nuvole nel Dettaglio: Nuvoloso 823 m
2020/12/03 16:00 LKPR 031600Z 18004KT 9999 OVC027 M01/M04 Q1005 R24/29//95 NOSIG
 
LHBP - Budapest-Ferihegy, Ungheria
Ultimo Aggiornamento: Giovedì 03 Dicembre 2020 17:00 CET
Pioggia Leggera, Parzialmente Nuvoloso
Pioggia Leggera, Parzialmente Nuvoloso
 Wind from Est
Vento: Est 15 km/h
Temperatura: 2°C
Wind Chill: -2°C
Punto di Rugiada: 0°C
Umidità: 87%
Barometro: 1010 hPa
Condizioni: Pioggia Leggera
Nuvole: Parzialmente Nuvoloso
Visibilità: 10 km
2020/12/03 16:00 LHBP 031600Z 09008KT 9999 -RA NSC 02/M00 Q1010 NOSIG
UUEE - Mosca-Seremetevo, Russia
Ultimo Aggiornamento: Giovedì 03 Dicembre 2020 17:00 CET
Parzialmente Nuvoloso
Parzialmente Nuvoloso
 Wind from Est-Sud-Est
Vento: Est-Sud-Est 18 km/h
Temperatura: -5°C
Wind Chill: -11°C
Punto di Rugiada: -9°C
Umidità: 74%
Barometro: 1031 hPa
Nuvole: Parzialmente Nuvoloso
Visibilità: 10 km
Nuvole nel Dettaglio: Parzialmente Nuvoloso 1311 m
2020/12/03 16:00 UUEE 031600Z 12005MPS 9999 SCT043 M05/M09 Q1031 R06R/410151 R06L/290051 NOSIG
EYVI - Vilnius, Lituania
Ultimo Aggiornamento: Giovedì 03 Dicembre 2020 16:50 CET
Nuvoloso
Nuvoloso
 Wind from Sud-Est
Vento: Sud-Est 20 km/h
Temperatura: -1°C
Wind Chill: -7°C
Punto di Rugiada: -2°C
Umidità: 93%
Barometro: 1019 hPa
Nuvole: Nuvoloso
Visibilità: 10 km
Nuvole nel Dettaglio: Nuvoloso 427 m
2020/12/03 15:50 EYVI 031550Z 14011KT 9999 OVC014 M01/M02 Q1019 R19/1///95 NOSIG
 
EVRA - Riga, Lettonia
Ultimo Aggiornamento: Giovedì 03 Dicembre 2020 16:50 CET
Nuvoloso
Nuvoloso
 Wind from Sud-Sud-Est
Vento: Sud-Sud-Est 19 km/h
Temperatura: 0°C
Wind Chill: -5°C
Punto di Rugiada: -2°C
Umidità: 87%
Barometro: 1018 hPa
Nuvole: Nuvoloso
Visibilità: 10 km
Nuvole nel Dettaglio: Nuvoloso 366 m
2020/12/03 15:50 EVRA 031550Z 15010KT 9999 OVC012 00/M02 Q1018 R18/310195 NOSIG
EETN - Tallinn, Estonia
Ultimo Aggiornamento: Giovedì 03 Dicembre 2020 16:50 CET
Nuvoloso
Nuvoloso
 Wind from Sud-Est
Vento: Sud-Est 11 km/h
Temperatura: -1°C
Wind Chill: -5°C
Punto di Rugiada: -3°C
Umidità: 86%
Barometro: 1019 hPa
Nuvole: Nuvoloso
Visibilità: 10 km
Nuvole nel Dettaglio: Prevalentemente Nuvoloso 366 m
Nuvoloso 488 m
2020/12/03 15:50 EETN 031550Z 13006KT 100V160 9999 BKN012 OVC016 M01/M03 Q1019 R08/19//95 NOSIG
EKCH - Copenaghen, Danimarca
Ultimo Aggiornamento: Giovedì 03 Dicembre 2020 16:50 CET
Pioggia Leggera, Neve, Nuvoloso
Pioggia Leggera, Neve, Nuvoloso
 Wind from Sud-Sud-Est
Vento: Sud-Sud-Est 28 km/h
Temperatura: 1°C
Wind Chill: -5°C
Punto di Rugiada: 0°C
Umidità: 93%
Barometro: 1001 hPa
Condizioni: Pioggia Leggera, Neve
Nuvole: Nuvoloso
Visibilità: 5 km
Nuvole nel Dettaglio: Nuvoloso 366 m
2020/12/03 15:50 EKCH 031550Z 15015KT 5000 -RASN OVC012 01/M00 Q1001 TEMPO 16016G26KT 2500 RASN BKN018
 
ESSA - Stockholm Arlanda, Svezia
Ultimo Aggiornamento: Giovedì 03 Dicembre 2020 16:50 CET
Prevalentemente Nuvoloso
Prevalentemente Nuvoloso
 Wind from Est-Sud-Est
Vento: Est-Sud-Est 11 km/h
Temperatura: 2°C
Wind Chill: -1°C
Punto di Rugiada: 1°C
Umidità: 93%
Barometro: 1009 hPa
Nuvole: Prevalentemente Nuvoloso
Visibilità: 10 km
Nuvole nel Dettaglio: Prevalentemente Nuvoloso 549 m
2020/12/03 15:50 ESSA 031550Z 12006KT 9999 BKN018 02/01 Q1009 R01R/29//95 R08/29//95 NOSIG
EDDT - Berlin Tegel, Germania
Ultimo Aggiornamento: Lunedì 09 Novembre 2020 07:50 CET
Dati non Recenti
Bruma, Nuvoloso
Bruma, Nuvoloso
 Wind from Est
Vento: Est 11 km/h
Temperatura: 6°C
Wind Chill: 4°C
Punto di Rugiada: 5°C
Umidità: 93%
Barometro: 1027 hPa
Condizioni: Bruma
Nuvole: Nuvoloso
Visibilità: 3 km
Nuvole nel Dettaglio: Nuvoloso 91 m
2020/11/09 06:50 EDDT 090650Z 09006KT 050V120 3000 BR OVC003 06/05 Q1027
EGLL - Londra-Heathrow, Inghilterra
Ultimo Aggiornamento: Giovedì 03 Dicembre 2020 16:50 CET
Pioggia, Temporale
Pioggia, Temporale
 Wind from Ovest-Sud-Ovest
Vento: Ovest-Sud-Ovest 15 km/h
Temperatura: 6°C
Wind Chill: 3°C
Punto di Rugiada: 5°C
Umidità: 93%
Barometro: 979 hPa
Condizioni: Pioggia
Nuvole: Temporale
Visibilità: 5 km
Nuvole nel Dettaglio: Nuvoloso 853 m
2020/12/03 15:50 EGLL 031550Z AUTO 24008KT 4700 RA OVC028/// //////CB 06/05 Q0979
 
EGPH - Edinburgh, Scotland
Ultimo Aggiornamento: Giovedì 03 Dicembre 2020 16:50 CET
Parzialmente Nuvoloso
Parzialmente Nuvoloso
 Wind from varies
Vento: variabile 2 km/h
Temperatura: 1°C
Punto di Rugiada: 1°C
Umidità: 100%
Barometro: 984 hPa
Nuvole: Parzialmente Nuvoloso
Visibilità: 8 km
2020/12/03 15:50 EGPH 031550Z VRB01KT 8000 NSC 01/01 Q0984
EPWA - Varsavia-Chopin, Polonia
Ultimo Aggiornamento: Giovedì 03 Dicembre 2020 17:00 CET
Sereno
Sereno
 Wind from Sud-Est
Vento: Sud-Est 26 km/h
Temperatura: 1°C
Wind Chill: -4°C
Punto di Rugiada: -3°C
Umidità: 75%
Barometro: 1011 hPa
Condizioni: Sereno
Visibilità: superiore a 10 km
2020/12/03 16:00 EPWA 031600Z 13014KT CAVOK 01/M03 Q1011 NOSIG
ENGM - Oslo-Gardermoen, Norvegia
Ultimo Aggiornamento: Giovedì 03 Dicembre 2020 16:50 CET
Pioviggine, Bruma, Nuvoloso
Pioviggine, Bruma, Nuvoloso
 Wind from Est-Sud-Est
Vento: Est-Sud-Est 15 km/h
Temperatura: 0°C
Wind Chill: -4°C
Punto di Rugiada: 0°C
Umidità: 100%
Barometro: 1002 hPa
Condizioni: Pioviggine, Bruma
Nuvole: Nuvoloso
Visibilità: 5 km
Nuvole nel Dettaglio: Nuvoloso 122 m
2020/12/03 15:50 ENGM 031550Z 12008KT 5000 -DZ BR OVC004 00/M00 Q1002 TEMPO 4000 -SNRA BR SCT004 OVC008
 
LJLJ - Ljubljana Joze Pucnik, Slovenia
Ultimo Aggiornamento: Giovedì 03 Dicembre 2020 17:00 CET
Nuvoloso
Nuvoloso
 Wind from Ovest-Sud-Ovest
Vento: Ovest-Sud-Ovest 4 km/h
Temperatura: -2°C
Punto di Rugiada: -2°C
Umidità: 100%
Barometro: 1008 hPa
Nuvole: Nuvoloso
Visibilità: 7 km
Nuvole nel Dettaglio: Qualche Nuvola 213 m
Parzialmente Nuvoloso 518 m
Nuvoloso 853 m
2020/12/03 16:00 LJLJ 031600Z 25002KT 7000 FEW007 SCT017 OVC028 M02/M02 Q1008 R30/29//95 NOSIG
LYBE - Belgrado-Nikola Tesla, Serbia
Ultimo Aggiornamento: Giovedì 03 Dicembre 2020 17:00 CET
Sereno
Sereno
 Wind from Sud-Est
Vento: Sud-Est 39 km/h
Temperatura: 6°C
Wind Chill: 1°C
Punto di Rugiada: 1°C
Umidità: 71%
Barometro: 1009 hPa
Condizioni: Sereno
Visibilità: superiore a 10 km
2020/12/03 16:00 LYBE 031600Z 13021KT CAVOK 06/01 Q1009 NOSIG
LDZA - Zagabria-Franjo Tudman, Croazia
Ultimo Aggiornamento: Giovedì 03 Dicembre 2020 17:00 CET
Pioggia Leggera, Neve, Bruma, Prevalentemente Nuvoloso
Pioggia Leggera, Neve, Bruma, Prevalentemente Nuvoloso
 Wind from Ovest
Vento: Ovest 4 km/h
Temperatura: 0°C
Punto di Rugiada: -1°C
Umidità: 93%
Barometro: 1009 hPa
Condizioni: Pioggia Leggera, Neve, Bruma
Nuvole: Prevalentemente Nuvoloso
Visibilità: 2 km
Nuvole nel Dettaglio: Qualche Nuvola 305 m
Prevalentemente Nuvoloso 1128 m
2020/12/03 16:00 LDZA 031600Z 27002KT 2000 -RASN BR FEW010 BKN037 00/M01 Q1009 NOSIG
 
LQSA - Sarajevo, Bosnia-Erzegovina
Ultimo Aggiornamento: Giovedì 03 Dicembre 2020 17:00 CET
Pioggia Leggera, Prevalentemente Nuvoloso
Pioggia Leggera, Prevalentemente Nuvoloso
 Wind from varies
Vento: variabile 6 km/h
Temperatura: 9°C
Punto di Rugiada: 9°C
Umidità: 100%
Barometro: 1005 hPa
Condizioni: Pioggia Leggera
Nuvole: Prevalentemente Nuvoloso
Visibilità: 10 km
Nuvole nel Dettaglio: Parzialmente Nuvoloso 610 m
Prevalentemente Nuvoloso 1219 m
2020/12/03 16:00 LQSA 031600Z VRB03KT 9999 -RA SCT020 BKN040 09/09 Q1005 NOSIG
LATI - Tirana, Albania
Ultimo Aggiornamento: Giovedì 03 Dicembre 2020 16:50 CET
Pioggia Leggera, Nuvoloso
Pioggia Leggera, Nuvoloso
 Wind from Est-Sud-Est
Vento: Est-Sud-Est 13 km/h
Temperatura: 12°C
Punto di Rugiada: 10°C
Umidità: 88%
Barometro: 1010 hPa
Condizioni: Pioggia Leggera
Nuvole: Nuvoloso
Visibilità: 10 km
Nuvole nel Dettaglio: Qualche Nuvola 1615 m
Nuvoloso 2316 m
2020/12/03 15:50 LATI 031550Z 11007KT 080V150 9999 -RA FEW053 OVC076 12/10 Q1010 NOSIG
LEPA - Palma de Mallorca, Spagna
Ultimo Aggiornamento: Giovedì 03 Dicembre 2020 17:00 CET
Parzialmente Nuvoloso
Parzialmente Nuvoloso
 Wind from Ovest-Sud-Ovest
Vento: Ovest-Sud-Ovest 22 km/h
Temperatura: 15°C
Punto di Rugiada: 8°C
Umidità: 63%
Barometro: 1007 hPa
Nuvole: Parzialmente Nuvoloso
Visibilità: 10 km
Nuvole nel Dettaglio: Qualche Nuvola 610 m
Parzialmente Nuvoloso 1676 m
2020/12/03 16:00 LEPA 031600Z 24012KT 9999 FEW020 SCT055 15/08 Q1007 NOSIG
 
GCLP - Gran Canaria, Spagna
Ultimo Aggiornamento: Giovedì 03 Dicembre 2020 17:00 CET
Parzialmente Nuvoloso
Parzialmente Nuvoloso
 Wind from Sud
Vento: Sud 17 km/h
Temperatura: 22°C
Punto di Rugiada: 15°C
Umidità: 65%
Barometro: 1015 hPa
Nuvole: Parzialmente Nuvoloso
Visibilità: 10 km
Nuvole nel Dettaglio: Qualche Nuvola 762 m
Parzialmente Nuvoloso 914 m
2020/12/03 16:00 GCLP 031600Z 17009KT 9999 FEW025 SCT030 22/15 Q1015 NOSIG
LXGB - Gibraltar International Airport
Ultimo Aggiornamento: Giovedì 03 Dicembre 2020 16:50 CET
Qualche Nuvola
Qualche Nuvola
 Wind from Sud
Vento: Sud 15 km/h
Temperatura: 18°C
Punto di Rugiada: 12°C
Umidità: 68%
Barometro: 1011 hPa
Nuvole: Qualche Nuvola
Visibilità: 10 km
Nuvole nel Dettaglio: Qualche Nuvola 914 m
2020/12/03 15:50 LXGB 031550Z 19008KT 9999 FEW030 18/12 Q1011 NOSIG RMK BLU BLU
LGAV - Atene-Eleftherios Venizelos, Grecia
Ultimo Aggiornamento: Giovedì 03 Dicembre 2020 16:50 CET
Prevalentemente Nuvoloso
Prevalentemente Nuvoloso
 Wind from Nord-Est
Vento: Nord-Est 6 km/h
Temperatura: 13°C
Punto di Rugiada: 7°C
Umidità: 67%
Barometro: 1017 hPa
Nuvole: Prevalentemente Nuvoloso
Visibilità: 10 km
Nuvole nel Dettaglio: Qualche Nuvola 762 m
Prevalentemente Nuvoloso 2134 m
2020/12/03 15:50 LGAV 031550Z 04003KT 9999 FEW025 BKN070 13/07 Q1017 NOSIG